Time;durP1;ratioP1;P1;durP2;ratioP2;P2;SDS_P1;SDS_P2;PMS_P1;PMS_P2;Temp;Humidity;BMP_temperature;BMP_pressure;BME280_temperature;BME280_humidity;BME280_pressure;Samples;Min_cycle;Max_cycle;Signal;HPM_P1;HPM_P2
2023/01/27 00:01:56;;;;;;;31.70;14.55;;;4.30;99.90;;;;;;5030857;28;20049;-59
2023/01/27 00:04:24;;;;;;;26.33;15.90;;;4.20;99.90;;;;;;5030665;28;20111;-59
2023/01/27 00:06:51;;;;;;;33.97;17.13;;;4.20;99.90;;;;;;5029686;28;20146;-59
2023/01/27 00:09:18;;;;;;;30.63;15.52;;;4.20;99.90;;;;;;5030896;28;20103;-60
2023/01/27 00:14:29;;;;;;;21.10;13.63;;;4.20;99.90;;;;;;5030840;28;20045;-57
2023/01/27 00:16:56;;;;;;;30.58;15.38;;;4.20;99.90;;;;;;5033158;28;20175;-57
2023/01/27 00:19:25;;;;;;;28.75;15.90;;;4.20;99.90;;;;;;5031125;28;20108;-60
2023/01/27 00:24:36;;;;;;;27.05;14.85;;;4.20;99.90;;;;;;5032624;28;20057;-60
2023/01/27 00:27:04;;;;;;;32.25;17.30;;;4.20;99.90;;;;;;5029533;28;20444;-59
2023/01/27 00:29:30;;;;;;;24.92;14.35;;;4.20;99.90;;;;;;5030186;28;20053;-59
2023/01/27 00:34:43;;;;;;;22.50;14.32;;;4.20;99.90;;;;;;5026431;28;20058;-59
2023/01/27 00:37:09;;;;;;;22.45;13.07;;;4.20;99.90;;;;;;5029156;28;20087;-60
2023/01/27 00:39:36;;;;;;;20.17;13.10;;;4.20;99.90;;;;;;5028285;28;20083;-59
2023/01/27 00:42:03;;;;;;;25.02;14.73;;;4.20;99.90;;;;;;5028232;28;20073;-56
2023/01/27 00:44:30;;;;;;;18.85;14.18;;;4.20;99.90;;;;;;5030985;28;20128;-59
2023/01/27 00:46:56;;;;;;;22.73;15.32;;;4.20;99.90;;;;;;5030140;28;20057;-60
2023/01/27 00:49:24;;;;;;;19.85;15.02;;;4.20;99.90;;;;;;5030028;28;20409;-58
2023/01/27 00:51:53;;;;;;;22.23;16.95;;;4.20;99.90;;;;;;5030836;28;20056;-59
2023/01/27 00:54:20;;;;;;;21.63;15.55;;;4.20;99.90;;;;;;5029261;28;20087;-59
2023/01/27 00:56:47;;;;;;;22.05;13.52;;;4.20;99.90;;;;;;5031960;28;20474;-58
2023/01/27 00:59:14;;;;;;;20.00;13.00;;;4.30;99.90;;;;;;5029687;28;20045;-58
2023/01/27 01:01:41;;;;;;;14.95;10.07;;;4.20;99.90;;;;;;5030753;28;20054;-58
2023/01/27 01:04:08;;;;;;;16.13;10.20;;;4.20;99.90;;;;;;5030288;28;20073;-49
2023/01/27 01:06:34;;;;;;;14.73;9.63;;;4.20;99.90;;;;;;5031102;28;20453;-60
2023/01/27 01:09:02;;;;;;;16.35;10.90;;;4.20;99.90;;;;;;5027129;28;20080;-58
2023/01/27 01:11:29;;;;;;;15.73;10.07;;;4.20;99.90;;;;;;5029341;28;20477;-58
2023/01/27 01:13:56;;;;;;;14.40;10.07;;;4.20;99.90;;;;;;5030236;28;20077;-60
2023/01/27 01:16:23;;;;;;;13.60;10.23;;;4.30;99.90;;;;;;5030021;28;20049;-59
2023/01/27 01:18:50;;;;;;;19.02;12.43;;;4.20;99.90;;;;;;5030404;28;20103;-59
2023/01/27 01:21:17;;;;;;;13.45;9.65;;;4.20;99.90;;;;;;5031269;28;20099;-60
2023/01/27 01:23:44;;;;;;;18.27;10.05;;;4.20;99.90;;;;;;5029493;28;20076;-57
2023/01/27 01:26:14;;;;;;;14.85;8.95;;;4.20;99.90;;;;;;5028969;28;20091;-58
2023/01/27 01:28:41;;;;;;;12.30;9.05;;;4.30;99.90;;;;;;5031994;28;20047;-59
2023/01/27 01:31:08;;;;;;;16.60;8.95;;;4.30;99.90;;;;;;5030283;28;20551;-55
2023/01/27 01:33:35;;;;;;;13.75;9.00;;;4.20;99.90;;;;;;5029428;28;20096;-55
2023/01/27 01:36:06;;;;;;;13.20;7.50;;;4.20;99.90;;;;;;5029396;28;20088;-56
2023/01/27 01:38:33;;;;;;;11.90;7.30;;;4.20;99.90;;;;;;5031812;28;20053;-60
2023/01/27 01:40:59;;;;;;;13.05;7.95;;;4.20;99.90;;;;;;5032362;28;20085;-58
2023/01/27 01:43:28;;;;;;;14.73;8.40;;;4.20;99.90;;;;;;5033686;28;20465;-59
2023/01/27 01:45:55;;;;;;;14.75;8.55;;;4.30;99.90;;;;;;5033379;28;20504;-58
2023/01/27 01:48:25;;;;;;;15.32;10.00;;;4.30;99.90;;;;;;5034749;28;20104;-59
2023/01/27 01:50:54;;;;;;;13.52;9.25;;;4.30;99.90;;;;;;5032664;28;20077;-58
2023/01/27 01:53:21;;;;;;;13.05;9.63;;;4.20;99.90;;;;;;5033727;28;20053;-58
2023/01/27 01:55:48;;;;;;;16.38;9.90;;;4.30;99.90;;;;;;5033414;28;20489;-58
2023/01/27 01:58:15;;;;;;;14.65;10.88;;;4.30;99.90;;;;;;5033356;28;20053;-59
2023/01/27 02:00:43;;;;;;;14.25;10.20;;;4.30;99.90;;;;;;5033027;28;20052;-59
2023/01/27 02:03:10;;;;;;;14.95;10.30;;;4.20;99.90;;;;;;5033425;28;20401;-59
2023/01/27 02:05:39;;;;;;;15.05;10.27;;;4.30;99.90;;;;;;5031716;28;20362;-59
2023/01/27 02:08:09;;;;;;;15.93;10.65;;;4.30;99.90;;;;;;5033082;28;20115;-58
2023/01/27 02:10:36;;;;;;;15.48;10.88;;;4.30;99.90;;;;;;5030624;28;20107;-58
2023/01/27 02:13:03;;;;;;;12.75;10.20;;;4.30;99.90;;;;;;5026871;28;20060;-57
2023/01/27 02:15:30;;;;;;;16.42;10.55;;;4.20;99.90;;;;;;5034422;28;20458;-59
2023/01/27 02:17:58;;;;;;;16.77;10.82;;;4.20;99.90;;;;;;5045977;28;20103;-59
2023/01/27 02:20:28;;;;;;;17.95;10.77;;;4.20;99.90;;;;;;5032781;28;20157;-59
2023/01/27 02:22:58;;;;;;;15.55;10.55;;;4.30;99.90;;;;;;5033327;28;20136;-59
2023/01/27 02:25:27;;;;;;;13.50;9.35;;;4.20;99.90;;;;;;5032208;28;20512;-59
2023/01/27 02:27:55;;;;;;;15.75;9.85;;;4.20;99.90;;;;;;5032481;28;20081;-55
2023/01/27 02:30:22;;;;;;;12.95;8.52;;;4.20;99.90;;;;;;5032134;28;20144;-58
2023/01/27 02:32:48;;;;;;;13.55;8.30;;;4.30;99.90;;;;;;5031766;28;20115;-58
2023/01/27 02:35:16;;;;;;;13.68;8.27;;;4.30;99.90;;;;;;5033614;28;20081;-59
2023/01/27 02:37:43;;;;;;;10.98;7.65;;;4.30;99.90;;;;;;5032289;28;20394;-59
2023/01/27 02:40:11;;;;;;;11.15;6.57;;;4.30;99.90;;;;;;5032931;28;20139;-58
2023/01/27 02:42:37;;;;;;;10.15;6.85;;;4.30;99.90;;;;;;5031515;28;20135;-56
2023/01/27 02:45:07;;;;;;;10.98;6.28;;;4.20;99.90;;;;;;5033108;28;20057;-59
2023/01/27 02:47:34;;;;;;;9.80;6.15;;;4.30;99.90;;;;;;5033003;28;20085;-59
2023/01/27 02:50:00;;;;;;;10.68;5.45;;;4.30;99.90;;;;;;5032705;28;20049;-51
2023/01/27 02:52:27;;;;;;;9.13;4.70;;;4.30;99.90;;;;;;5031616;28;20118;-59
2023/01/27 02:54:54;;;;;;;7.50;4.47;;;4.30;99.90;;;;;;5031221;28;20073;-59
2023/01/27 02:57:21;;;;;;;8.15;4.40;;;4.30;99.90;;;;;;5033153;28;20049;-54
2023/01/27 02:59:48;;;;;;;6.82;4.30;;;4.30;99.90;;;;;;5031284;28;20053;-50
2023/01/27 03:02:21;;;;;;;8.73;4.10;;;4.30;99.90;;;;;;5033065;28;20053;-59
2023/01/27 03:04:48;;;;;;;6.88;3.55;;;4.30;99.90;;;;;;5031668;28;20133;-58
2023/01/27 03:07:15;;;;;;;6.03;3.22;;;4.40;99.90;;;;;;5031605;28;20085;-41
2023/01/27 03:09:41;;;;;;;4.35;3.03;;;4.40;99.90;;;;;;5031621;28;20486;-53
2023/01/27 03:12:20;;;;;;;10.35;3.17;;;4.40;99.90;;;;;;5030848;28;20100;-57
2023/01/27 03:20:17;;;;;;;6.75;2.72;;;4.40;99.90;;;;;;5029908;28;20042;-58
2023/01/27 03:22:44;;;;;;;3.42;2.38;;;4.40;99.90;;;;;;5032049;28;20061;-54
2023/01/27 03:25:11;;;;;;;6.90;2.47;;;4.40;99.90;;;;;;5032204;28;20122;-58
2023/01/27 03:27:38;;;;;;;6.40;2.40;;;4.40;99.90;;;;;;5032756;28;20072;-58
2023/01/27 03:30:08;;;;;;;5.38;2.25;;;4.40;99.90;;;;;;5031123;28;20053;-58
2023/01/27 03:32:37;;;;;;;3.70;2.47;;;4.40;99.90;;;;;;5032265;28;20045;-59
2023/01/27 03:35:04;;;;;;;6.05;2.58;;;4.40;99.90;;;;;;5023985;28;20104;-58
2023/01/27 03:48:32;;;;;;;5.07;2.58;;;4.50;99.90;;;;;;5031655;28;20045;-58
2023/01/27 03:50:59;;;;;;;5.10;2.55;;;4.40;99.90;;;;;;5031242;28;20441;-55
2023/01/27 03:53:26;;;;;;;4.05;2.35;;;4.40;99.90;;;;;;5031859;28;20129;-57
2023/01/27 03:55:52;;;;;;;4.45;2.33;;;4.40;99.90;;;;;;5033113;28;20057;-58
2023/01/27 03:58:20;;;;;;;3.78;2.45;;;4.40;99.90;;;;;;5031701;28;20077;-57
2023/01/27 04:00:49;;;;;;;5.32;2.17;;;4.40;99.90;;;;;;5030440;28;20085;-58
2023/01/27 04:08:48;;;;;;;5.75;2.40;;;4.40;99.90;;;;;;5030954;28;20087;-58
2023/01/27 04:14:01;;;;;;;5.55;2.38;;;4.40;99.90;;;;;;5031861;28;20065;-58
2023/01/27 04:16:29;;;;;;;5.32;2.40;;;4.30;99.90;;;;;;5038210;28;20087;-58
2023/01/27 04:18:55;;;;;;;4.30;2.60;;;4.30;99.90;;;;;;5038622;28;20059;-56
2023/01/27 04:21:24;;;;;;;4.93;2.40;;;4.30;99.90;;;;;;5028462;28;20069;-56
2023/01/27 04:23:51;;;;;;;5.07;2.45;;;4.30;99.90;;;;;;5031258;28;20509;-57
2023/01/27 04:26:18;;;;;;;5.05;2.53;;;4.30;99.90;;;;;;5032611;28;20493;-58
2023/01/27 04:28:45;;;;;;;4.15;2.35;;;4.30;99.90;;;;;;5031502;28;20460;-55
2023/01/27 04:31:12;;;;;;;7.65;2.60;;;4.30;99.90;;;;;;5029343;28;20072;-58
2023/01/27 04:33:38;;;;;;;4.03;2.40;;;4.30;99.90;;;;;;5029608;28;20119;-58
2023/01/27 04:36:06;;;;;;;5.03;2.42;;;4.20;99.90;;;;;;5030504;28;20072;-57
2023/01/27 04:38:34;;;;;;;8.15;2.40;;;4.30;99.90;;;;;;5031982;28;20076;-57
2023/01/27 04:41:00;;;;;;;6.50;2.50;;;4.30;99.90;;;;;;5029184;28;20045;-57
2023/01/27 04:43:27;;;;;;;5.47;2.58;;;4.30;99.90;;;;;;5030659;28;20054;-50
2023/01/27 04:45:54;;;;;;;5.55;2.40;;;4.20;99.90;;;;;;5029412;28;20045;-58
2023/01/27 04:48:21;;;;;;;6.15;2.60;;;4.20;99.90;;;;;;5029000;28;20111;-57
2023/01/27 04:50:48;;;;;;;5.03;2.60;;;4.20;99.90;;;;;;5029008;28;20488;-57
2023/01/27 04:53:14;;;;;;;6.28;2.47;;;4.20;99.90;;;;;;5029720;28;20045;-56
2023/01/27 04:55:43;;;;;;;4.28;2.38;;;4.20;99.90;;;;;;5031380;28;20092;-48
2023/01/27 04:58:10;;;;;;;5.00;2.60;;;4.30;99.90;;;;;;5030242;28;20053;-58
2023/01/27 05:00:37;;;;;;;3.65;2.40;;;4.20;99.90;;;;;;5028248;28;20452;-54
2023/01/27 05:03:04;;;;;;;3.90;2.50;;;4.20;99.90;;;;;;5029999;28;20545;-57
2023/01/27 05:05:31;;;;;;;5.68;2.15;;;4.20;99.90;;;;;;5028362;28;20046;-58
2023/01/27 05:08:02;;;;;;;5.45;2.47;;;4.10;99.90;;;;;;5029272;28;20084;-58
2023/01/27 05:10:29;;;;;;;5.82;2.70;;;4.10;99.90;;;;;;5030411;28;20041;-58
2023/01/27 05:12:57;;;;;;;4.82;2.55;;;4.10;99.90;;;;;;5030002;28;20077;-58
2023/01/27 05:15:24;;;;;;;6.75;2.55;;;4.30;99.90;;;;;;5036178;28;20049;-57
2023/01/27 05:17:51;;;;;;;6.95;2.95;;;4.20;99.90;;;;;;5036692;28;20096;-54
2023/01/27 05:20:18;;;;;;;7.05;2.97;;;4.10;99.90;;;;;;5034370;28;20081;-58
2023/01/27 05:22:45;;;;;;;6.85;3.03;;;4.10;99.90;;;;;;5032805;28;20448;-58
2023/01/27 05:25:11;;;;;;;8.38;3.22;;;4.20;99.90;;;;;;5034034;28;20053;-57
2023/01/27 05:27:38;;;;;;;4.57;2.88;;;4.10;99.90;;;;;;5032041;28;20136;-57
2023/01/27 05:30:08;;;;;;;7.03;3.10;;;4.10;99.90;;;;;;5033642;28;20115;-57
2023/01/27 05:32:35;;;;;;;6.50;3.10;;;4.20;99.90;;;;;;5028257;28;20520;-57
2023/01/27 05:35:02;;;;;;;8.30;3.00;;;4.10;99.90;;;;;;5031826;28;20151;-57
2023/01/27 05:37:28;;;;;;;3.85;2.67;;;4.10;99.90;;;;;;5033310;28;21452;-57
2023/01/27 05:39:55;;;;;;;7.75;2.90;;;4.20;99.90;;;;;;5033475;28;20041;-57
2023/01/27 05:42:22;;;;;;;4.53;2.55;;;4.10;99.90;;;;;;5033104;28;20477;-58
2023/01/27 05:44:49;;;;;;;4.15;2.30;;;4.10;99.90;;;;;;5033421;28;20107;-58
2023/01/27 05:47:17;;;;;;;6.55;2.75;;;4.10;99.90;;;;;;5027834;28;20107;-48
2023/01/27 05:49:44;;;;;;;7.32;2.60;;;4.10;99.90;;;;;;5036486;28;20085;-46
2023/01/27 05:52:11;;;;;;;5.45;2.50;;;4.10;99.90;;;;;;5034079;28;20053;-58
2023/01/27 05:54:37;;;;;;;6.43;2.67;;;4.10;99.90;;;;;;5038152;28;20481;-56
2023/01/27 05:57:04;;;;;;;6.88;2.72;;;4.10;99.90;;;;;;5024309;28;20089;-54
2023/01/27 05:59:31;;;;;;;7.72;2.72;;;4.10;99.90;;;;;;5032055;28;20092;-56
2023/01/27 06:01:58;;;;;;;6.65;2.50;;;4.10;99.90;;;;;;5030055;28;20093;-58
2023/01/27 06:04:26;;;;;;;6.00;2.55;;;4.00;99.90;;;;;;5033123;28;20183;-56
2023/01/27 06:06:53;;;;;;;5.47;2.70;;;4.10;99.90;;;;;;5030396;28;20049;-57
2023/01/27 06:09:20;;;;;;;6.75;2.78;;;4.10;99.90;;;;;;5032427;28;20141;-55
2023/01/27 06:11:47;;;;;;;9.38;2.85;;;4.00;99.90;;;;;;5032630;28;20084;-58
2023/01/27 06:14:14;;;;;;;4.68;2.78;;;4.00;99.90;;;;;;5033709;28;20080;-58
2023/01/27 06:16:42;;;;;;;5.05;3.10;;;4.00;99.90;;;;;;5028756;28;20085;-57
2023/01/27 06:19:10;;;;;;;9.35;3.25;;;4.00;99.90;;;;;;5032655;28;20501;-56
2023/01/27 06:21:38;;;;;;;8.02;3.50;;;4.00;99.90;;;;;;5032054;28;20069;-55
2023/01/27 06:24:05;;;;;;;8.48;3.40;;;4.00;99.90;;;;;;5027566;28;20455;-54
2023/01/27 06:26:32;;;;;;;5.13;3.25;;;4.00;99.90;;;;;;5028831;28;20494;-57
2023/01/27 06:28:59;;;;;;;4.97;3.30;;;4.00;99.90;;;;;;5034249;28;20089;-57
2023/01/27 06:31:27;;;;;;;8.68;4.03;;;4.00;99.90;;;;;;5029161;28;20085;-56
2023/01/27 06:33:53;;;;;;;10.50;4.03;;;4.10;99.90;;;;;;5029550;28;20045;-56
2023/01/27 06:36:21;;;;;;;6.95;3.92;;;4.00;99.90;;;;;;5032351;28;20547;-57
2023/01/27 06:38:49;;;;;;;10.52;4.15;;;4.00;99.90;;;;;;5033627;28;20084;-52
2023/01/27 06:41:16;;;;;;;8.30;4.13;;;3.90;99.90;;;;;;5028407;28;20052;-57
2023/01/27 06:43:43;;;;;;;6.78;4.05;;;3.90;99.90;;;;;;5027711;28;20096;-57
2023/01/27 06:46:10;;;;;;;9.35;4.80;;;3.90;99.90;;;;;;5031681;28;20053;-47
2023/01/27 06:48:37;;;;;;;9.18;4.68;;;4.00;99.90;;;;;;5028582;28;20087;-57
2023/01/27 06:51:04;;;;;;;6.93;4.38;;;3.90;99.90;;;;;;5033617;28;20061;-58
2023/01/27 06:53:31;;;;;;;10.40;4.95;;;3.90;99.90;;;;;;5026938;28;20126;-56
2023/01/27 06:56:00;;;;;;;13.00;4.57;;;3.90;99.90;;;;;;5022997;28;20827;-43
2023/01/27 06:58:27;;;;;;;7.68;4.72;;;4.00;99.90;;;;;;5021781;28;20136;-57
2023/01/27 07:00:54;;;;;;;8.05;4.85;;;3.90;99.90;;;;;;5027955;28;20398;-53
2023/01/27 07:03:21;;;;;;;10.32;4.80;;;3.90;99.90;;;;;;5027948;28;20139;-56
2023/01/27 07:05:48;;;;;;;9.27;4.60;;;3.90;99.90;;;;;;5028543;28;20049;-55
2023/01/27 07:08:15;;;;;;;7.82;5.10;;;3.90;99.90;;;;;;5027725;28;20049;-54
2023/01/27 07:10:42;;;;;;;8.10;5.20;;;3.90;99.90;;;;;;5027810;28;20133;-56
2023/01/27 07:13:11;;;;;;;7.55;5.13;;;4.00;99.90;;;;;;5030642;28;20466;-56
2023/01/27 07:15:38;;;;;;;10.90;4.93;;;3.90;99.90;;;;;;5017715;28;20061;-46
2023/01/27 07:18:05;;;;;;;11.20;5.82;;;3.90;99.90;;;;;;5028716;28;20103;-52
2023/01/27 07:20:32;;;;;;;9.82;6.25;;;3.90;99.90;;;;;;5028482;28;20305;-57
2023/01/27 07:22:58;;;;;;;9.68;5.45;;;3.90;99.90;;;;;;5028566;28;20457;-55
2023/01/27 07:25:25;;;;;;;9.93;5.32;;;3.90;99.90;;;;;;5029330;28;20088;-56
2023/01/27 07:27:52;;;;;;;10.35;4.78;;;3.80;99.90;;;;;;5027936;28;20065;-51
2023/01/27 07:30:20;;;;;;;7.25;4.35;;;3.80;99.90;;;;;;5029772;28;20050;-55
2023/01/27 07:32:49;;;;;;;13.05;4.43;;;3.90;99.90;;;;;;5013038;28;20089;-48
2023/01/27 07:35:16;;;;;;;6.78;3.85;;;3.80;99.90;;;;;;5026999;28;20395;-55
2023/01/27 07:37:42;;;;;;;8.00;3.97;;;3.90;99.90;;;;;;5029024;28;20067;-55
2023/01/27 07:40:12;;;;;;;4.93;3.63;;;3.90;99.90;;;;;;5029988;28;20115;-53
2023/01/27 07:42:39;;;;;;;9.15;3.47;;;3.90;99.90;;;;;;5029658;28;20366;-57
2023/01/27 07:45:07;;;;;;;10.02;4.10;;;3.90;99.90;;;;;;5027390;28;20486;-49
2023/01/27 07:47:35;;;;;;;9.10;3.70;;;3.90;99.90;;;;;;5025746;28;20120;-54
2023/01/27 07:50:01;;;;;;;9.10;3.95;;;3.90;99.90;;;;;;5030331;28;20056;-52
2023/01/27 07:52:28;;;;;;;9.00;3.38;;;3.80;99.90;;;;;;5026985;28;20099;-57
2023/01/27 07:54:55;;;;;;;6.85;3.10;;;3.90;99.90;;;;;;5027213;28;20526;-51
2023/01/27 07:57:22;;;;;;;11.95;3.38;;;3.90;99.90;;;;;;5024871;28;20127;-49
2023/01/27 07:59:52;;;;;;;9.90;3.30;;;3.80;99.90;;;;;;5022810;28;20141;-50
2023/01/27 08:02:19;;;;;;;4.32;3.33;;;3.90;99.90;;;;;;5028916;28;20111;-57
2023/01/27 08:04:49;;;;;;;6.88;3.40;;;3.90;99.90;;;;;;5027885;28;20088;-53
2023/01/27 08:07:16;;;;;;;11.95;3.63;;;3.90;99.90;;;;;;5026498;28;20409;-56
2023/01/27 08:09:43;;;;;;;6.63;3.03;;;3.90;99.90;;;;;;5027567;28;20063;-56
2023/01/27 08:12:10;;;;;;;8.43;3.53;;;3.90;99.90;;;;;;5026562;28;20571;-53
2023/01/27 08:14:36;;;;;;;9.45;3.50;;;3.90;99.90;;;;;;5025165;28;20180;-56
2023/01/27 08:17:03;;;;;;;10.18;3.13;;;3.90;99.90;;;;;;5026952;28;20073;-50
2023/01/27 08:19:30;;;;;;;7.63;3.08;;;3.90;99.90;;;;;;5023804;28;20057;-56
2023/01/27 08:21:58;;;;;;;13.18;3.05;;;3.90;99.90;;;;;;5025005;28;20045;-56
2023/01/27 08:24:25;;;;;;;7.68;2.75;;;4.00;99.90;;;;;;5025962;28;20089;-57
2023/01/27 08:26:52;;;;;;;7.28;3.42;;;4.00;99.90;;;;;;5023907;28;20053;-53
2023/01/27 08:29:19;;;;;;;6.22;2.83;;;4.00;99.90;;;;;;5021333;28;20065;-50
2023/01/27 08:31:45;;;;;;;7.70;3.15;;;3.90;99.90;;;;;;5024016;28;20137;-56
2023/01/27 08:34:12;;;;;;;9.50;3.05;;;4.00;99.90;;;;;;5022729;28;20077;-54
2023/01/27 08:36:42;;;;;;;6.72;2.85;;;4.00;99.90;;;;;;5024513;28;20045;-52
2023/01/27 08:39:10;;;;;;;6.10;2.70;;;4.00;99.90;;;;;;5021061;28;20106;-57
2023/01/27 08:41:37;;;;;;;7.78;2.67;;;4.00;99.90;;;;;;5024526;28;20099;-47
2023/01/27 08:44:04;;;;;;;11.88;3.30;;;4.00;99.90;;;;;;5031461;28;20056;-54
2023/01/27 08:46:31;;;;;;;5.60;2.45;;;4.00;99.90;;;;;;5023018;28;20042;-58
2023/01/27 08:48:58;;;;;;;11.18;2.83;;;4.10;99.90;;;;;;5027379;28;20053;-57
2023/01/27 08:51:25;;;;;;;8.80;3.00;;;4.10;99.90;;;;;;5022597;28;20100;-53
2023/01/27 08:53:51;;;;;;;7.55;2.80;;;4.10;99.90;;;;;;5021517;28;20104;-58
2023/01/27 08:56:20;;;;;;;9.85;3.38;;;4.10;99.90;;;;;;5026579;28;20132;-58
2023/01/27 08:58:47;;;;;;;10.48;3.45;;;4.10;99.90;;;;;;5030205;28;20049;-56
2023/01/27 09:01:14;;;;;;;6.45;3.20;;;4.10;99.90;;;;;;5029663;28;20450;-55
2023/01/27 09:03:40;;;;;;;9.00;3.20;;;4.10;99.90;;;;;;5029315;28;20504;-55
2023/01/27 09:06:08;;;;;;;9.13;3.55;;;4.10;99.90;;;;;;5026878;28;20077;-57
2023/01/27 09:08:35;;;;;;;8.63;3.65;;;4.20;99.90;;;;;;5030345;28;20312;-58
2023/01/27 09:11:08;;;;;;;7.72;4.03;;;4.20;99.90;;;;;;5025658;28;20076;-50
2023/01/27 09:13:36;;;;;;;8.50;4.05;;;4.20;99.90;;;;;;5027574;28;20142;-56
2023/01/27 09:16:03;;;;;;;8.52;3.90;;;4.20;99.90;;;;;;5022767;28;20509;-55
2023/01/27 09:18:30;;;;;;;10.65;4.47;;;4.20;99.90;;;;;;5026530;28;20135;-50
2023/01/27 09:20:57;;;;;;;9.45;4.50;;;4.20;99.90;;;;;;5025367;28;20103;-57
2023/01/27 09:23:24;;;;;;;9.73;4.95;;;4.20;99.90;;;;;;5027389;28;20122;-54
2023/01/27 09:25:51;;;;;;;9.55;4.93;;;4.20;99.90;;;;;;5026654;28;20111;-57
2023/01/27 09:28:17;;;;;;;7.60;4.85;;;4.30;99.90;;;;;;5027964;28;20144;-51
2023/01/27 09:30:46;;;;;;;7.75;4.90;;;4.30;99.90;;;;;;5026486;28;20049;-56
2023/01/27 09:33:13;;;;;;;8.70;4.45;;;4.30;99.90;;;;;;5027503;28;20149;-56
2023/01/27 09:35:42;;;;;;;8.40;4.90;;;4.30;99.90;;;;;;5027609;28;20543;-57
2023/01/27 09:38:09;;;;;;;9.30;5.50;;;4.30;99.90;;;;;;5027287;28;20077;-54
2023/01/27 09:40:39;;;;;;;10.45;5.00;;;4.40;99.90;;;;;;5025836;28;20520;-48
2023/01/27 09:43:33;;;;;;;8.23;5.50;;;4.40;99.90;;;;;;5029804;28;20042;-53
2023/01/27 09:46:38;;;;;;;12.65;5.30;;;4.40;99.90;;;;;;4990437;28;20505;-51
2023/01/27 09:49:22;;;;;;;8.88;4.70;;;4.50;99.90;;;;;;5012925;28;20138;-57
2023/01/27 09:51:54;;;;;;;7.57;5.13;;;4.50;99.90;;;;;;5023776;28;20045;-56
2023/01/27 09:54:31;;;;;;;9.10;5.00;;;4.50;99.90;;;;;;5028164;28;20401;-57
2023/01/27 09:57:03;;;;;;;8.50;5.32;;;4.60;99.90;;;;;;5028515;28;20054;-57
2023/01/27 09:59:48;;;;;;;10.38;4.95;;;4.60;99.90;;;;;;5030761;28;20107;-56
2023/01/27 10:02:22;;;;;;;10.05;4.68;;;4.60;99.90;;;;;;5031195;28;20058;-51
2023/01/27 10:04:56;;;;;;;7.82;4.32;;;4.60;99.90;;;;;;5030809;28;20045;-47
2023/01/27 10:08:08;;;;;;;6.15;4.03;;;4.70;99.90;;;;;;5029915;28;20107;-57
2023/01/27 10:10:44;;;;;;;7.88;4.40;;;4.70;99.90;;;;;;4988732;28;20092;-56
2023/01/27 10:13:16;;;;;;;6.55;4.00;;;4.70;99.90;;;;;;5028808;28;20176;-57
2023/01/27 10:15:55;;;;;;;5.40;3.60;;;4.60;99.90;;;;;;5029276;28;20104;-55
2023/01/27 10:18:30;;;;;;;6.68;3.92;;;4.70;99.90;;;;;;5028134;28;20463;-52
2023/01/27 10:21:01;;;;;;;6.78;3.80;;;4.60;99.90;;;;;;5030678;28;20049;-55
2023/01/27 10:23:34;;;;;;;7.45;3.75;;;4.60;99.90;;;;;;5032840;28;20050;-58
2023/01/27 10:26:07;;;;;;;5.07;3.55;;;4.70;99.90;;;;;;5029185;28;20064;-56
2023/01/27 10:28:34;;;;;;;10.13;4.20;;;4.70;99.90;;;;;;5029478;28;20081;-58
2023/01/27 10:31:01;;;;;;;8.90;4.43;;;4.70;99.90;;;;;;5032205;28;20061;-54
2023/01/27 10:33:40;;;;;;;7.00;4.30;;;4.70;99.90;;;;;;5030162;28;20494;-56
2023/01/27 10:36:08;;;;;;;6.70;3.60;;;4.70;99.90;;;;;;5028564;28;20046;-57
2023/01/27 10:38:37;;;;;;;5.07;2.83;;;4.70;99.90;;;;;;5026672;28;20077;-57
2023/01/27 10:41:10;;;;;;;4.72;2.63;;;4.70;99.90;;;;;;5031255;28;20089;-49
2023/01/27 10:43:42;;;;;;;3.30;2.60;;;4.70;99.90;;;;;;5031653;28;20130;-55
2023/01/27 10:46:12;;;;;;;6.47;2.60;;;4.70;99.90;;;;;;5027624;28;20049;-53
2023/01/27 10:48:43;;;;;;;5.63;2.70;;;4.60;99.90;;;;;;5022023;28;20099;-57
2023/01/27 10:51:11;;;;;;;6.60;2.60;;;4.60;99.90;;;;;;5033584;28;20120;-56
2023/01/27 10:53:42;;;;;;;3.50;2.42;;;4.50;99.90;;;;;;5030890;28;20064;-55
2023/01/27 10:56:11;;;;;;;4.50;2.50;;;4.50;99.90;;;;;;5031029;28;20081;-51
2023/01/27 10:58:48;;;;;;;5.95;2.40;;;4.50;99.90;;;;;;5032830;28;20139;-56
2023/01/27 11:01:16;;;;;;;2.38;2.10;;;4.60;99.90;;;;;;5033016;28;20084;-56
2023/01/27 11:03:47;;;;;;;7.00;2.70;;;4.60;99.90;;;;;;5032488;28;20089;-55
2023/01/27 11:06:15;;;;;;;3.22;2.10;;;4.50;99.90;;;;;;5019270;28;20096;-55
2023/01/27 11:08:44;;;;;;;5.57;2.42;;;4.50;99.90;;;;;;5031076;28;20091;-53
2023/01/27 11:14:01;;;;;;;3.38;2.42;;;4.50;99.90;;;;;;5032912;28;20057;-52
2023/01/27 11:16:29;;;;;;;6.50;2.47;;;4.50;99.90;;;;;;5031334;28;20057;-56
2023/01/27 11:18:57;;;;;;;2.97;2.53;;;4.50;99.90;;;;;;5031366;28;20467;-54
2023/01/27 11:21:26;;;;;;;5.35;2.40;;;4.50;99.90;;;;;;5030902;28;20562;-57
2023/01/27 11:23:55;;;;;;;7.38;2.67;;;4.50;99.90;;;;;;5032148;28;20061;-55
2023/01/27 11:26:27;;;;;;;3.22;2.67;;;4.50;99.90;;;;;;5032176;28;20123;-55
2023/01/27 11:28:55;;;;;;;;;;;4.50;99.90;;;;;;5013289;28;20112;-52
2023/01/27 11:31:28;;;;;;;4.85;2.92;;;4.50;99.90;;;;;;5015433;28;19979;-57
2023/01/27 11:33:58;;;;;;;4.13;3.03;;;4.50;99.90;;;;;;5028050;28;20061;-52
2023/01/27 11:36:25;;;;;;;3.20;2.88;;;4.50;99.90;;;;;;5031483;28;20128;-57
2023/01/27 11:38:52;;;;;;;4.90;2.95;;;4.50;99.90;;;;;;5031152;28;20045;-57
2023/01/27 11:41:19;;;;;;;5.03;2.75;;;4.50;99.90;;;;;;5031933;28;20050;-56
2023/01/27 11:43:46;;;;;;;3.97;2.72;;;4.50;99.90;;;;;;5029956;28;20493;-55
2023/01/27 11:46:14;;;;;;;6.63;3.00;;;4.50;99.90;;;;;;5030093;28;20045;-57
2023/01/27 11:48:43;;;;;;;4.80;2.80;;;4.50;99.90;;;;;;5032598;28;20387;-56
2023/01/27 11:51:14;;;;;;;4.85;3.13;;;4.50;99.90;;;;;;5042532;28;20123;-57
2023/01/27 11:53:41;;;;;;;6.05;2.92;;;4.50;99.90;;;;;;5031600;28;20409;-56
2023/01/27 11:56:10;;;;;;;5.47;2.70;;;4.50;99.90;;;;;;5030457;28;20053;-54
2023/01/27 11:58:39;;;;;;;2.75;2.38;;;4.60;99.90;;;;;;5031761;28;20057;-54
2023/01/27 12:01:09;;;;;;;3.13;2.55;;;4.60;99.90;;;;;;5031080;28;20061;-55
2023/01/27 12:03:45;;;;;;;3.15;2.55;;;4.60;99.90;;;;;;5031553;28;20134;-56
2023/01/27 12:06:14;;;;;;;2.70;2.38;;;4.60;99.90;;;;;;5028810;28;20084;-56
2023/01/27 12:08:42;;;;;;;3.90;2.78;;;4.60;99.90;;;;;;5028459;28;20080;-52
2023/01/27 12:11:23;;;;;;;3.72;2.83;;;4.60;99.90;;;;;;5032586;28;20054;-55
2023/01/27 12:13:54;;;;;;;4.32;2.88;;;4.60;99.90;;;;;;5028154;28;20057;-51
2023/01/27 12:16:21;;;;;;;4.90;2.72;;;4.60;99.90;;;;;;5032269;28;20065;-55
2023/01/27 12:18:52;;;;;;;5.60;3.28;;;4.60;99.90;;;;;;5028063;28;20123;-51
2023/01/27 12:21:20;;;;;;;3.53;2.30;;;4.60;99.90;;;;;;5029357;28;20099;-51
2023/01/27 12:23:48;;;;;;;2.90;2.00;;;4.60;99.90;;;;;;5028932;28;20092;-56
2023/01/27 12:26:15;;;;;;;3.50;1.90;;;4.60;99.90;;;;;;5031215;28;20444;-55
2023/01/27 12:28:43;;;;;;;3.42;2.05;;;4.60;99.90;;;;;;5032343;28;20042;-55
2023/01/27 12:31:11;;;;;;;3.13;1.95;;;4.70;99.90;;;;;;5032298;28;20049;-55
2023/01/27 12:33:38;;;;;;;2.03;1.83;;;4.60;99.90;;;;;;5032266;28;20053;-55
2023/01/27 12:36:11;;;;;;;1.83;1.73;;;4.60;99.90;;;;;;5031446;28;20085;-55
2023/01/27 12:38:39;;;;;;;2.22;1.58;;;4.60;99.90;;;;;;5032134;28;20054;-54
2023/01/27 12:41:07;;;;;;;2.40;2.03;;;4.60;99.90;;;;;;5030151;28;20049;-57
2023/01/27 12:43:49;;;;;;;3.85;2.28;;;4.60;99.90;;;;;;5029681;28;20473;-56
2023/01/27 12:46:20;;;;;;;2.38;2.05;;;4.60;99.90;;;;;;5025191;28;20061;-56
2023/01/27 12:48:48;;;;;;;3.00;2.35;;;4.60;99.90;;;;;;5027264;28;20053;-55
2023/01/27 12:51:17;;;;;;;2.92;2.10;;;4.70;99.90;;;;;;5030564;28;20080;-52
2023/01/27 12:53:45;;;;;;;4.43;2.42;;;4.70;99.90;;;;;;5030863;28;20461;-56
2023/01/27 12:56:13;;;;;;;3.00;1.85;;;4.70;99.90;;;;;;5027328;28;20501;-52
2023/01/27 12:58:40;;;;;;;4.40;2.40;;;4.70;99.90;;;;;;5027438;28;20081;-56
2023/01/27 13:01:19;;;;;;;3.45;2.40;;;4.70;99.90;;;;;;5029870;28;20072;-55
2023/01/27 13:03:46;;;;;;;2.20;1.88;;;4.70;99.90;;;;;;5026907;28;20045;-55
2023/01/27 13:06:14;;;;;;;2.65;1.88;;;4.70;99.90;;;;;;5031545;28;20080;-56
2023/01/27 13:08:41;;;;;;;2.83;2.50;;;4.70;99.90;;;;;;5030051;28;20378;-56
2023/01/27 13:11:09;;;;;;;4.10;2.42;;;4.70;99.90;;;;;;5020200;28;20085;-56
2023/01/27 13:13:36;;;;;;;2.90;2.42;;;4.70;99.90;;;;;;5031347;28;20580;-53
2023/01/27 13:16:06;;;;;;;5.63;3.00;;;4.70;99.90;;;;;;5029181;28;20045;-56
2023/01/27 13:18:33;;;;;;;3.83;2.88;;;4.70;99.90;;;;;;5028338;28;20055;-56
2023/01/27 13:21:03;;;;;;;3.58;2.80;;;4.70;99.90;;;;;;5027105;28;20081;-53
2023/01/27 13:23:31;;;;;;;2.70;2.45;;;4.60;99.90;;;;;;5029783;28;20144;-56
2023/01/27 13:26:02;;;;;;;2.40;2.20;;;4.60;99.90;;;;;;5031849;28;20087;-55
2023/01/27 13:28:31;;;;;;;4.50;1.90;;;4.70;99.90;;;;;;5031434;28;20452;-55
2023/01/27 13:31:02;;;;;;;2.08;1.70;;;4.60;99.90;;;;;;5025859;28;20050;-53
2023/01/27 13:33:33;;;;;;;3.05;2.00;;;4.60;99.90;;;;;;5029488;28;20037;-55
2023/01/27 13:36:01;;;;;;;3.55;2.15;;;4.60;99.90;;;;;;5031984;28;20559;-56